createdAt,value
2022-12-05T00:01:23.534Z,84.59
2022-12-05T00:03:54.002Z,85.69
2022-12-05T00:06:22.957Z,85.28
2022-12-05T00:08:51.785Z,84.75
2022-12-05T00:11:27.808Z,84.51
2022-12-05T00:13:56.963Z,84.33
2022-12-05T00:16:26.594Z,84.11
2022-12-05T00:18:54.174Z,84.22
2022-12-05T00:21:26.547Z,83.63
2022-12-05T00:23:55.636Z,83.63
2022-12-05T00:26:23.197Z,83.81
2022-12-05T00:28:52.608Z,84.09
2022-12-05T00:31:21.817Z,83.59
2022-12-05T00:33:49.699Z,84.25
2022-12-05T00:36:18.695Z,84.34
2022-12-05T00:38:46.214Z,84.21
2022-12-05T00:41:19.984Z,85.23
2022-12-05T00:43:47.992Z,85.52
2022-12-05T00:46:18.472Z,84.78
2022-12-05T00:48:46.253Z,85.96
2022-12-05T00:51:23.168Z,85.96
2022-12-05T00:53:50.781Z,85.18
2022-12-05T00:56:20.330Z,85.78
2022-12-05T00:58:48.455Z,86.20
2022-12-05T01:01:21.805Z,86.44
2022-12-05T01:03:49.448Z,87.31
2022-12-05T01:06:17.114Z,86.63
2022-12-05T01:08:44.526Z,86.18
2022-12-05T01:11:15.296Z,85.31
2022-12-05T01:13:43.133Z,86.05
2022-12-05T01:16:21.505Z,86.42
2022-12-05T01:18:49.383Z,86.49
2022-12-05T01:21:17.374Z,86.52
2022-12-05T01:23:44.721Z,86.26
2022-12-05T01:26:14.620Z,86.37
2022-12-05T01:28:42.034Z,85.91
2022-12-05T01:31:31.432Z,86.50
2022-12-05T01:34:00.487Z,86.08
2022-12-05T01:36:28.461Z,85.58
2022-12-05T01:38:56.265Z,85.39
2022-12-05T01:41:26.229Z,86.66
2022-12-05T01:44:07.166Z,87.01
2022-12-05T01:46:39.910Z,87.50
2022-12-05T01:49:11.345Z,87.58
2022-12-05T01:51:41.298Z,87.61
2022-12-05T01:54:08.515Z,87.99
2022-12-05T01:56:36.143Z,87.77
2022-12-05T01:59:05.519Z,87.14
2022-12-05T02:01:32.868Z,87.22
2022-12-05T02:04:00.431Z,87.81
2022-12-05T02:06:28.593Z,87.65
2022-12-05T02:08:56.015Z,87.31
2022-12-05T02:11:25.417Z,88.30
2022-12-05T02:14:10.456Z,88.36
2022-12-05T02:16:46.861Z,88.50
2022-12-05T02:19:27.530Z,88.39
2022-12-05T02:22:01.223Z,88.02
2022-12-05T02:24:28.628Z,87.65
2022-12-05T02:27:38.743Z,87.62
2022-12-05T02:30:11.540Z,86.99
2022-12-05T02:32:50.516Z,87.48
2022-12-05T02:35:36.296Z,86.87
2022-12-05T02:38:03.549Z,86.38
2022-12-05T02:40:35.459Z,86.27
2022-12-05T02:43:24.215Z,86.98
2022-12-05T02:45:54.167Z,87.24
2022-12-05T02:48:21.510Z,87.22
2022-12-05T02:50:49.317Z,87.25
2022-12-05T02:53:18.036Z,86.90
2022-12-05T02:55:45.767Z,87.31
2022-12-05T02:58:21.968Z,86.27
2022-12-05T03:00:50.507Z,87.50
2022-12-05T03:03:19.576Z,88.85
2022-12-05T03:05:57.436Z,89.09
2022-12-05T03:08:30.066Z,89.81
2022-12-05T03:10:58.853Z,90.43
2022-12-05T03:13:29.445Z,91.31
2022-12-05T03:16:00.652Z,91.66
2022-12-05T03:18:34.226Z,90.70
2022-12-05T03:21:08.925Z,91.42
2022-12-05T03:23:42.267Z,93.78
2022-12-05T03:26:20.637Z,94.42
2022-12-05T03:29:11.882Z,95.41
2022-12-05T03:31:52.626Z,95.56
2022-12-05T03:34:35.052Z,96.29
2022-12-05T03:37:07.125Z,97.04
2022-12-05T03:39:35.847Z,97.51
2022-12-05T03:42:14.005Z,97.59
2022-12-05T03:44:47.156Z,97.10
2022-12-05T03:47:33.209Z,96.86
2022-12-05T03:50:04.511Z,96.70
2022-12-05T03:53:03.696Z,96.43
2022-12-05T03:55:29.937Z,95.48
2022-12-05T03:58:08.902Z,95.06
2022-12-05T04:00:41.354Z,95.34
2022-12-05T04:03:24.542Z,95.75
2022-12-05T04:05:56.915Z,94.28
2022-12-05T04:08:31.506Z,93.58
2022-12-05T04:11:03.687Z,93.52
2022-12-05T04:13:33.966Z,93.34
2022-12-05T04:16:23.559Z,93.16
2022-12-05T04:18:56.742Z,93.25
2022-12-05T04:21:39.121Z,94.96
2022-12-05T04:24:29.095Z,96.24
2022-12-05T04:27:16.557Z,96.57
2022-12-05T04:29:53.247Z,96.05
2022-12-05T04:32:25.012Z,95.96
2022-12-05T04:34:55.926Z,96.08
2022-12-05T04:37:30.969Z,96.07
2022-12-05T04:40:04.551Z,96.19
2022-12-05T04:42:33.770Z,96.44
2022-12-05T04:45:08.345Z,96.36
2022-12-05T04:47:46.208Z,96.62
2022-12-05T04:50:14.546Z,96.24
2022-12-05T04:52:43.531Z,95.13
2022-12-05T04:55:16.223Z,94.43
2022-12-05T04:58:19.945Z,94.62
2022-12-05T05:00:52.995Z,94.74
2022-12-05T05:03:31.192Z,95.17
2022-12-05T05:05:58.793Z,95.70
2022-12-05T05:08:29.029Z,95.33
2022-12-05T05:11:11.766Z,94.73
2022-12-05T05:13:39.239Z,93.84
2022-12-05T05:16:07.137Z,95.58
2022-12-05T05:18:34.661Z,94.53
2022-12-05T05:21:01.957Z,93.89
2022-12-05T05:23:29.183Z,94.23
2022-12-05T05:25:56.631Z,94.88
2022-12-05T05:28:23.892Z,94.56
2022-12-05T05:30:51.264Z,92.60
2022-12-05T05:33:18.695Z,92.21
2022-12-05T05:35:46.010Z,92.20
2022-12-05T05:38:13.239Z,93.51
2022-12-05T05:40:40.633Z,94.93
2022-12-05T05:43:08.348Z,95.49
2022-12-05T05:45:36.938Z,95.15
2022-12-05T05:48:04.529Z,95.41
2022-12-05T05:50:31.752Z,95.30
2022-12-05T05:52:59.442Z,94.92
2022-12-05T05:55:26.767Z,94.19
2022-12-05T05:57:54.154Z,94.59
2022-12-05T06:00:21.721Z,95.84
2022-12-05T06:02:49.118Z,95.18
2022-12-05T06:05:16.479Z,95.33
2022-12-05T06:07:43.838Z,94.71
2022-12-05T06:10:11.317Z,93.43
2022-12-05T06:12:38.607Z,93.98
2022-12-05T06:15:06.601Z,93.32
2022-12-05T06:17:33.856Z,94.62
2022-12-05T06:20:01.220Z,94.62
2022-12-05T06:22:29.816Z,94.62
2022-12-05T06:24:57.220Z,94.47
2022-12-05T06:27:24.577Z,93.73
2022-12-05T06:29:52.957Z,94.05
2022-12-05T06:32:20.320Z,94.25
2022-12-05T06:34:47.610Z,94.69
2022-12-05T06:37:15.119Z,95.44
2022-12-05T06:39:42.478Z,95.30
2022-12-05T06:42:09.814Z,95.87
2022-12-05T06:44:37.151Z,95.74
2022-12-05T06:47:04.461Z,94.55
2022-12-05T06:49:37.616Z,93.63
2022-12-05T06:52:05.375Z,92.84
2022-12-05T06:54:32.861Z,94.36
2022-12-05T06:57:00.085Z,94.71
2022-12-05T06:59:27.352Z,94.39
2022-12-05T07:01:54.721Z,92.70
2022-12-05T07:04:26.324Z,93.65
2022-12-05T07:06:55.061Z,94.22
2022-12-05T07:09:45.136Z,93.73
2022-12-05T07:12:14.068Z,92.80
2022-12-05T07:14:49.860Z,93.50
2022-12-05T07:17:21.453Z,93.81
2022-12-05T07:19:52.198Z,93.38
2022-12-05T07:22:21.451Z,94.12
2022-12-05T07:24:49.040Z,94.06
2022-12-05T07:27:18.474Z,93.20
2022-12-05T07:29:48.081Z,92.44
2022-12-05T07:32:15.394Z,92.21
2022-12-05T07:34:42.720Z,91.49
2022-12-05T07:37:10.028Z,90.74
2022-12-05T07:39:37.339Z,88.80
2022-12-05T07:42:04.611Z,90.51
2022-12-05T07:44:32.035Z,90.75
2022-12-05T07:46:59.455Z,91.90
2022-12-05T07:49:26.825Z,90.36
2022-12-05T07:51:54.157Z,89.24
2022-12-05T07:54:21.410Z,89.79
2022-12-05T07:56:48.624Z,89.22
2022-12-05T07:59:15.955Z,89.94
2022-12-05T08:01:43.323Z,89.21
2022-12-05T08:04:15.061Z,88.52
2022-12-05T08:06:42.937Z,88.13
2022-12-05T08:09:10.688Z,88.81
2022-12-05T08:11:39.466Z,87.46
2022-12-05T08:14:08.295Z,87.01
2022-12-05T08:16:35.679Z,87.66
2022-12-05T08:19:05.833Z,87.46
2022-12-05T08:21:33.643Z,87.84
2022-12-05T08:24:00.953Z,89.22
2022-12-05T08:26:30.775Z,89.49
2022-12-05T08:28:59.224Z,88.75
2022-12-05T08:31:28.261Z,88.32
2022-12-05T08:33:59.305Z,88.33
2022-12-05T08:36:28.765Z,89.21
2022-12-05T08:38:57.699Z,90.53
2022-12-05T08:41:28.675Z,90.91
2022-12-05T08:43:58.419Z,90.44
2022-12-05T08:46:26.025Z,90.99
2022-12-05T08:48:53.415Z,91.65
2022-12-05T08:51:20.772Z,90.89
2022-12-05T08:53:48.028Z,89.37
2022-12-05T08:56:15.345Z,91.18
2022-12-05T08:58:42.641Z,90.68
2022-12-05T09:01:15.089Z,91.75
2022-12-05T09:03:47.606Z,91.45
2022-12-05T09:06:19.211Z,90.35
2022-12-05T09:08:47.338Z,90.95
2022-12-05T09:11:20.180Z,91.66
2022-12-05T09:13:48.126Z,90.14
2022-12-05T09:16:26.642Z,89.89
2022-12-05T09:18:53.945Z,91.33
2022-12-05T09:21:23.705Z,90.77
2022-12-05T09:23:51.506Z,90.45
2022-12-05T09:26:22.275Z,91.18
2022-12-05T09:28:49.593Z,91.71
2022-12-05T09:31:19.765Z,92.11
2022-12-05T09:33:47.581Z,92.21
2022-12-05T09:36:21.502Z,92.90
2022-12-05T09:38:49.546Z,93.30
2022-12-05T09:41:57.051Z,91.71
2022-12-05T09:44:43.446Z,92.42
2022-12-05T09:47:15.719Z,93.63
2022-12-05T09:49:50.031Z,92.93
2022-12-05T09:52:27.604Z,92.05
2022-12-05T09:54:55.749Z,91.52
2022-12-05T09:57:36.069Z,89.88
2022-12-05T10:00:07.343Z,90.54
2022-12-05T10:02:46.137Z,88.89
2022-12-05T10:05:24.974Z,86.99
2022-12-05T10:08:16.951Z,87.25
2022-12-05T10:11:29.535Z,85.86
2022-12-05T10:14:27.070Z,86.61
2022-12-05T10:17:21.346Z,87.45
2022-12-05T10:19:49.923Z,86.68
2022-12-05T10:22:22.944Z,87.98
2022-12-05T10:24:54.283Z,87.91
2022-12-05T10:27:39.511Z,88.33
2022-12-05T10:30:17.975Z,89.06
2022-12-05T10:32:58.466Z,89.32
2022-12-05T10:35:37.154Z,88.25
2022-12-05T10:38:07.336Z,88.90
2022-12-05T10:40:39.679Z,87.49
2022-12-05T10:43:08.854Z,86.25
2022-12-05T10:45:43.677Z,84.66
2022-12-05T10:48:13.077Z,85.51
2022-12-05T10:50:42.476Z,85.57
2022-12-05T10:53:16.501Z,86.86
2022-12-05T10:56:28.350Z,85.87
2022-12-05T10:58:39.859Z,84.79
2022-12-05T11:01:09.437Z,84.20
2022-12-05T11:03:41.342Z,84.29
2022-12-05T11:06:24.008Z,83.95
2022-12-05T11:09:05.641Z,84.36
2022-12-05T11:11:33.890Z,82.43
2022-12-05T11:14:02.887Z,82.28
2022-12-05T11:16:40.033Z,82.04
2022-12-05T11:19:22.822Z,81.77
2022-12-05T11:21:50.496Z,83.11
2022-12-05T11:24:47.569Z,82.67
2022-12-05T11:27:18.202Z,81.42
2022-12-05T11:29:55.960Z,80.77
2022-12-05T11:32:25.958Z,81.48
2022-12-05T11:35:04.530Z,80.70
2022-12-05T11:37:46.015Z,79.73
2022-12-05T11:40:30.879Z,80.85
2022-12-05T11:43:15.197Z,80.77
2022-12-05T11:45:51.554Z,79.92
2022-12-05T11:48:22.305Z,78.91
2022-12-05T11:50:59.064Z,78.28
2022-12-05T11:53:51.423Z,77.34
2022-12-05T11:57:12.630Z,76.90
2022-12-05T11:59:39.909Z,75.49
2022-12-05T12:02:35.353Z,75.80
2022-12-05T12:05:14.585Z,76.48
2022-12-05T12:07:57.120Z,76.00
2022-12-05T12:10:48.676Z,79.49
2022-12-05T12:13:57.626Z,79.92
2022-12-05T12:16:37.028Z,79.32
2022-12-05T12:19:10.878Z,78.75
2022-12-05T12:21:54.556Z,79.23
2022-12-05T12:24:39.815Z,78.49
2022-12-05T12:27:32.079Z,77.49
2022-12-05T12:30:12.341Z,77.12
2022-12-05T12:32:58.029Z,78.26
2022-12-05T12:35:37.063Z,78.42
2022-12-05T12:38:17.640Z,79.19
2022-12-05T12:40:50.872Z,79.28
2022-12-05T12:43:52.715Z,79.86
2022-12-05T12:46:20.243Z,78.51
2022-12-05T12:49:03.950Z,78.00
2022-12-05T12:51:33.495Z,78.16
2022-12-05T12:54:25.280Z,77.48
2022-12-05T12:57:39.831Z,78.36
2022-12-05T13:00:29.061Z,78.63
2022-12-05T13:03:02.050Z,77.60
2022-12-05T13:05:41.739Z,77.16
2022-12-05T13:08:35.408Z,78.80
2022-12-05T13:11:06.035Z,78.84
2022-12-05T13:13:37.219Z,76.73
2022-12-05T13:16:08.002Z,76.18
2022-12-05T13:18:35.750Z,76.19
2022-12-05T13:21:07.593Z,77.60
2022-12-05T13:23:43.760Z,77.44
2022-12-05T13:26:12.202Z,77.25
2022-12-05T13:28:47.215Z,77.65
2022-12-05T13:31:39.628Z,78.55
2022-12-05T13:34:27.462Z,77.70
2022-12-05T13:37:15.661Z,77.94
2022-12-05T13:40:09.737Z,76.65
2022-12-05T13:42:37.954Z,76.30
2022-12-05T13:45:05.177Z,77.12
2022-12-05T13:47:35.103Z,77.03
2022-12-05T13:50:23.642Z,76.63
2022-12-05T13:52:56.562Z,77.08
2022-12-05T13:55:36.776Z,77.15
2022-12-05T13:58:16.526Z,77.25
2022-12-05T14:00:45.363Z,77.58
2022-12-05T14:03:35.573Z,76.66
2022-12-05T14:06:03.037Z,76.74
2022-12-05T14:08:30.227Z,76.46
2022-12-05T14:10:57.429Z,77.10
2022-12-05T14:13:25.660Z,76.91
2022-12-05T14:15:54.688Z,75.59
2022-12-05T14:18:31.188Z,76.16
2022-12-05T14:21:11.530Z,77.88
2022-12-05T14:23:57.580Z,77.96
2022-12-05T14:26:48.963Z,77.63
2022-12-05T14:29:36.850Z,78.81
2022-12-05T14:32:19.167Z,78.73
2022-12-05T14:34:58.149Z,77.97
2022-12-05T14:37:29.233Z,76.86
2022-12-05T14:39:58.706Z,77.91
2022-12-05T14:42:39.328Z,75.70
2022-12-05T14:45:30.091Z,77.29
2022-12-05T14:47:59.654Z,77.60
2022-12-05T14:50:40.872Z,77.47
2022-12-05T14:53:15.753Z,78.13
2022-12-05T14:55:50.734Z,78.46
2022-12-05T14:58:22.284Z,79.11
2022-12-05T15:00:58.081Z,79.61
2022-12-05T15:03:30.864Z,79.83
2022-12-05T15:06:03.675Z,80.08
2022-12-05T15:08:47.391Z,79.63
2022-12-05T15:11:28.455Z,79.52
2022-12-05T15:14:00.509Z,78.42
2022-12-05T15:16:30.001Z,78.19
2022-12-05T15:19:05.274Z,79.17
2022-12-05T15:21:36.544Z,78.95
2022-12-05T15:24:21.924Z,78.39
2022-12-05T15:26:50.504Z,78.50
2022-12-05T15:29:29.156Z,78.33
2022-12-05T15:32:02.402Z,77.50
2022-12-05T15:34:45.967Z,78.03
2022-12-05T15:37:25.904Z,77.72
2022-12-05T15:40:11.122Z,78.35
2022-12-05T15:42:49.945Z,79.82
2022-12-05T15:45:20.014Z,78.93
2022-12-05T15:47:59.840Z,80.79
2022-12-05T15:50:33.814Z,81.41
2022-12-05T15:53:05.654Z,81.19
2022-12-05T15:55:39.360Z,81.75
2022-12-05T15:58:13.445Z,80.99
2022-12-05T16:00:59.643Z,79.93
2022-12-05T16:03:49.249Z,79.88
2022-12-05T16:06:20.372Z,78.59
2022-12-05T16:08:48.103Z,78.67
2022-12-05T16:11:16.140Z,80.44
2022-12-05T16:13:49.912Z,80.00
2022-12-05T16:16:24.341Z,79.28
2022-12-05T16:19:00.202Z,80.25
2022-12-05T16:21:33.103Z,80.72
2022-12-05T16:24:08.483Z,79.76
2022-12-05T16:26:39.709Z,79.28
2022-12-05T16:29:09.569Z,78.92
2022-12-05T16:31:36.933Z,78.18
2022-12-05T16:34:07.616Z,77.87
2022-12-05T16:36:35.244Z,78.12
2022-12-05T16:39:07.211Z,76.37
2022-12-05T16:41:36.322Z,78.14
2022-12-05T16:44:10.761Z,78.15
2022-12-05T16:46:40.339Z,77.50
2022-12-05T16:49:33.043Z,76.60
2022-12-05T16:52:09.675Z,77.42
2022-12-05T16:54:37.063Z,77.17
2022-12-05T16:57:04.630Z,76.33
2022-12-05T16:59:37.248Z,75.29
2022-12-05T17:02:10.216Z,75.19
2022-12-05T17:04:38.709Z,75.54
2022-12-05T17:07:06.002Z,76.24
2022-12-05T17:09:33.363Z,75.71
2022-12-05T17:12:24.043Z,75.26
2022-12-05T17:14:51.300Z,75.20
2022-12-05T17:17:19.051Z,74.84
2022-12-05T17:19:46.437Z,74.53
2022-12-05T17:22:15.480Z,74.21
2022-12-05T17:24:43.106Z,74.13
2022-12-05T17:27:11.954Z,73.80
2022-12-05T17:29:39.266Z,73.20
2022-12-05T17:32:06.557Z,72.61
2022-12-05T17:34:34.874Z,73.58
2022-12-05T17:37:03.056Z,73.42
2022-12-05T17:39:31.386Z,74.59
2022-12-05T17:41:59.025Z,73.67
2022-12-05T17:44:26.483Z,74.83
2022-12-05T17:46:55.069Z,75.13
2022-12-05T17:49:22.942Z,74.83
2022-12-05T17:52:20.405Z,74.68
2022-12-05T17:54:41.009Z,74.55
2022-12-05T17:57:08.417Z,75.04
2022-12-05T17:59:35.656Z,74.17
2022-12-05T18:02:02.946Z,73.91
2022-12-05T18:04:30.207Z,74.27
2022-12-05T18:06:57.506Z,74.84
2022-12-05T18:09:24.716Z,75.03
2022-12-05T18:11:51.967Z,75.78
2022-12-05T18:14:19.208Z,74.85
2022-12-05T18:16:46.745Z,75.02
2022-12-05T18:19:15.125Z,75.15
2022-12-05T18:21:42.494Z,75.15
2022-12-05T18:24:10.413Z,75.42
2022-12-05T18:26:37.661Z,75.48
2022-12-05T18:29:04.950Z,75.18
2022-12-05T18:31:32.505Z,75.39
2022-12-05T18:33:59.863Z,76.14
2022-12-05T18:36:27.282Z,76.56
2022-12-05T18:38:56.084Z,76.53
2022-12-05T18:41:24.149Z,74.94
2022-12-05T18:43:51.564Z,75.58
2022-12-05T18:46:19.521Z,75.97
2022-12-05T18:48:47.960Z,75.60
2022-12-05T18:51:18.937Z,75.71
2022-12-05T18:53:52.526Z,75.12
2022-12-05T18:56:31.514Z,75.03
2022-12-05T18:59:04.790Z,74.88
2022-12-05T19:01:34.399Z,75.27
2022-12-05T19:04:03.982Z,75.24
2022-12-05T19:06:32.931Z,75.22
2022-12-05T19:09:02.585Z,74.87
2022-12-05T19:11:29.930Z,74.75
2022-12-05T19:13:58.635Z,75.21
2022-12-05T19:16:28.117Z,74.92
2022-12-05T19:18:57.025Z,75.34
2022-12-05T19:21:25.112Z,75.17
2022-12-05T19:23:52.771Z,75.97
2022-12-05T19:26:20.278Z,76.27
2022-12-05T19:28:47.689Z,76.79
2022-12-05T19:31:18.203Z,75.97
2022-12-05T19:33:47.910Z,75.75
2022-12-05T19:36:22.940Z,75.57
2022-12-05T19:38:51.483Z,75.58
2022-12-05T19:41:21.998Z,75.84
2022-12-05T19:43:49.394Z,75.93
2022-12-05T19:46:20.673Z,75.67
2022-12-05T19:48:48.304Z,75.62
2022-12-05T19:51:15.764Z,77.06
2022-12-05T19:53:44.058Z,78.08
2022-12-05T19:56:24.950Z,78.80
2022-12-05T19:58:53.961Z,78.67
2022-12-05T20:01:27.839Z,79.09
2022-12-05T20:04:06.727Z,78.54
2022-12-05T20:06:43.163Z,78.35
2022-12-05T20:09:21.453Z,76.59
2022-12-05T20:11:55.044Z,76.90
2022-12-05T20:14:25.297Z,77.61
2022-12-05T20:16:53.310Z,77.86
2022-12-05T20:19:20.676Z,78.52
2022-12-05T20:21:48.190Z,78.55
2022-12-05T20:24:15.465Z,77.79
2022-12-05T20:26:44.109Z,78.64
2022-12-05T20:29:11.353Z,78.66
2022-12-05T20:31:41.050Z,78.01
2022-12-05T20:34:14.778Z,77.23
2022-12-05T20:36:42.552Z,76.99
2022-12-05T20:39:14.703Z,77.42
2022-12-05T20:41:42.303Z,79.39
2022-12-05T20:44:13.487Z,79.16
2022-12-05T20:46:41.655Z,80.08
2022-12-05T20:49:09.250Z,79.35
2022-12-05T20:51:36.564Z,81.63
2022-12-05T20:54:05.374Z,81.45
2022-12-05T20:56:34.265Z,81.51
2022-12-05T20:59:03.987Z,82.80
2022-12-05T21:01:33.241Z,83.34
2022-12-05T21:04:01.428Z,82.96
2022-12-05T21:06:33.837Z,82.45
2022-12-05T21:09:01.974Z,82.05
2022-12-05T21:11:30.322Z,82.57
2022-12-05T21:14:00.255Z,81.87
2022-12-05T21:16:27.744Z,80.59
2022-12-05T21:18:56.156Z,80.37
2022-12-05T21:21:25.931Z,80.87
2022-12-05T21:23:58.242Z,81.80
2022-12-05T21:26:27.096Z,81.50
2022-12-05T21:28:54.871Z,81.16
2022-12-05T21:31:26.279Z,80.95
2022-12-05T21:33:56.890Z,80.19
2022-12-05T21:36:25.167Z,79.35
2022-12-05T21:38:56.203Z,79.43
2022-12-05T21:41:26.895Z,78.26
2022-12-05T21:43:55.686Z,78.36
2022-12-05T21:46:26.891Z,78.61
2022-12-05T21:48:54.872Z,78.31
2022-12-05T21:51:22.951Z,77.97
2022-12-05T21:53:50.562Z,78.07
2022-12-05T21:56:22.641Z,77.54
2022-12-05T21:58:50.409Z,77.92
2022-12-05T22:01:19.944Z,77.40
2022-12-05T22:03:47.587Z,77.03
2022-12-05T22:06:15.421Z,77.24
2022-12-05T22:08:43.306Z,77.17
2022-12-05T22:11:18.656Z,76.59
2022-12-05T22:13:47.046Z,76.19
2022-12-05T22:16:15.203Z,76.00
2022-12-05T22:18:43.374Z,74.58
2022-12-05T22:21:13.472Z,74.92
2022-12-05T22:23:40.774Z,75.39
2022-12-05T22:26:17.676Z,76.14
2022-12-05T22:28:45.497Z,77.10
2022-12-05T22:31:15.172Z,77.96
2022-12-05T22:33:48.185Z,77.45
2022-12-05T22:36:17.339Z,77.78
2022-12-05T22:38:47.279Z,76.94
2022-12-05T22:41:15.676Z,76.58
2022-12-05T22:43:44.709Z,77.00
2022-12-05T22:46:20.586Z,77.33
2022-12-05T22:48:49.089Z,77.25
2022-12-05T22:51:17.880Z,77.81
2022-12-05T22:53:45.496Z,77.28
2022-12-05T22:56:15.611Z,76.87
2022-12-05T22:58:43.093Z,78.65
2022-12-05T23:01:13.500Z,78.99
2022-12-05T23:03:41.606Z,79.35
2022-12-05T23:06:11.908Z,78.86
2022-12-05T23:08:40.721Z,77.43
2022-12-05T23:11:09.101Z,77.01
2022-12-05T23:13:37.651Z,78.50
2022-12-05T23:16:26.472Z,78.33
2022-12-05T23:18:56.110Z,78.32
2022-12-05T23:21:38.086Z,78.18
2022-12-05T23:24:08.375Z,78.54
2022-12-05T23:26:38.862Z,78.56
2022-12-05T23:29:08.171Z,78.30
2022-12-05T23:31:35.597Z,78.39
2022-12-05T23:34:04.243Z,77.48
2022-12-05T23:36:33.369Z,78.08
2022-12-05T23:39:01.302Z,78.05
2022-12-05T23:41:29.706Z,77.21
2022-12-05T23:43:59.690Z,77.53
2022-12-05T23:46:27.202Z,77.90
2022-12-05T23:48:55.950Z,77.13
2022-12-05T23:51:29.634Z,77.56
2022-12-05T23:54:01.377Z,77.84
2022-12-05T23:56:31.407Z,77.87
2022-12-05T23:58:59.883Z,78.08
